Ostend Airport 2018/04/23 05:20 EBOS 230520Z 24006KT 210V280 6000 FEW009 09/07 Q1015 NOSIG

Lille Airport 2018/04/23 05:30 LFQQ 230530Z AUTO 23008KT 6000 OVC008 11/09 Q1016 BECMG NSC

Brussels Airport 2018/04/23 05:20 EBBR 230520Z 25008KT CAVOK 12/08 Q1015 NOSIG